Terminal Aerodrome Forecast
Issued by NWS

Home | Current Version | Previous Version | Graphics & Text | Print | Product List | Glossary On
Versions: 1 2 3 4 5 6 7 8 9 10 11 12 13 14 15 16 17 18 19 20 21 22 23 24 25 26 27
000
FTUS43 KTOP 260100 AAA
TAFFOE
TAF AMD
KFOE 260100Z 2601/2624 34008KT P6SM OVC011
     FM260400 32006KT P6SM OVC007
     FM260800 30004KT 3SM BR OVC004
     FM261600 29004KT P6SM OVC013
     FM262000 08006KT P6SM SCT040=

USA.gov is the U.S. government's official web portal to all federal, state and local government web resources and services.